Stations météo

réclame
Mon MeteoGroup
Fehmarnbelt/Grosstonne, Allemagne (10043): Température de l'air & dewpoint: 06.07.2020 10:00:00 - 12.07.2020 10:00:00 (CEST)Fehmarnbelt/Grosstonne, Allemagne (10043): water temperature: 06.07.2020 10:00:00 - 12.07.2020 10:00:00 (CEST)Fehmarnbelt/Grosstonne, Allemagne (10043): Vitesse du vent: 06.07.2020 10:00:00 - 12.07.2020 10:00:00 (CEST)Fehmarnbelt/Grosstonne, Allemagne (10043): Direction du vent: 06.07.2020 10:00:00 - 12.07.2020 10:00:00 (CEST)Fehmarnbelt/Grosstonne, Allemagne (10043): reduced air pressure: 06.07.2020 10:00:00 - 12.07.2020 10:00:00 (CEST)
Date & Time tt [°C] td [°C] tw [°C] ff [km/h] ff [knt] dd ppp [hPa]
12.07.2020 10:00:00 - - - - - - -
12.07.2020 09:00:00 - - - - - - -
12.07.2020 08:00:00 - - - - - - -
12.07.2020 07:00:00 - - - - - - -
12.07.2020 06:00:00 - - - - - - -
12.07.2020 05:00:00 - - - - - - -
12.07.2020 04:00:00 - - - - - - -
12.07.2020 03:00:00 - - - - - - -
12.07.2020 02:00:00 - - - - - - -
12.07.2020 01:00:00 - - - - - - -
12.07.2020 00:00:00 - - - - - - -
11.07.2020 23:00:00 - - - - - - -
11.07.2020 22:00:00 - - - - - - -
11.07.2020 21:00:00 - - - - - - -
11.07.2020 20:00:00 - - - - - - -
11.07.2020 19:00:00 - - - - - - -
11.07.2020 18:00:00 - - - - - - -
11.07.2020 17:00:00 - - - - - - -
11.07.2020 16:00:00 - - - - - - -
11.07.2020 15:00:00 - - - - - - -
11.07.2020 14:00:00 - - - - - - -
11.07.2020 13:00:00 - - - - - - -
11.07.2020 12:00:00 - - - - - - -
11.07.2020 11:00:00 - - - - - - -
11.07.2020 10:00:00 - - - - - - -
11.07.2020 09:00:00 - - - - - - -
11.07.2020 08:00:00 - - - - - - -
11.07.2020 07:00:00 - - - - - - -
11.07.2020 06:00:00 - - - - - - -
11.07.2020 05:00:00 - - - - - - -
11.07.2020 04:00:00 - - - - - - -
11.07.2020 03:00:00 - - - - - - -
11.07.2020 02:00:00 - - - - - - -
11.07.2020 01:00:00 - - - - - - -
11.07.2020 00:00:00 - - - - - - -
10.07.2020 23:00:00 - - - - - - -
10.07.2020 22:00:00 - - - - - - -
10.07.2020 21:00:00 - - - - - - -
10.07.2020 20:00:00 - - - - - - -
10.07.2020 19:00:00 - - - - - - -
10.07.2020 18:00:00 - - - - - - -
10.07.2020 17:00:00 - - - - - - -
10.07.2020 16:00:00 - - - - - - -
10.07.2020 15:00:00 - - - - - - -
10.07.2020 14:00:00 13,2 10,2 16,3 27 15 N 1008,4
10.07.2020 13:00:00 12,9 11,4 16,2 29 16 N 1007,6
10.07.2020 12:00:00 12,2 11,2 16,1 26 14 NNE 1007,8
10.07.2020 11:00:00 12,2 10,7 16,1 21 11 NNE 1008,1
10.07.2020 10:00:00 12,5 10,5 15,9 22 12 ENE 1008,2
10.07.2020 09:00:00 13,0 10,5 15,8 20 11 ENE 1008,3
10.07.2020 08:00:00 12,7 9,7 15,7 13 7 E 1008,9
10.07.2020 07:00:00 13,0 9,9 16,1 10 6 E 1009,4
10.07.2020 06:00:00 13,7 10,0 16,1 8 5 E 1009,7
10.07.2020 05:00:00 14,2 10,7 16,0 6 4 E 1009,8
10.07.2020 04:00:00 13,9 10,2 16,1 5 3 ENE 1010,1
10.07.2020 03:00:00 14,0 10,7 16,1 4 2 NNE 1010,7
10.07.2020 02:00:00 14,0 10,7 16,1 7 4 NNW 1011,1
10.07.2020 01:00:00 13,9 10,0 16,0 9 5 NW 1011,4
10.07.2020 00:00:00 13,7 10,2 16,3 9 5 NW 1011,5
09.07.2020 23:00:00 13,9 10,4 16,5 10 5 NW 1011,5
09.07.2020 22:00:00 14,0 9,2 16,6 9 5 NNW 1011,6
09.07.2020 21:00:00 14,5 9,5 16,7 6 4 N 1011,1
09.07.2020 20:00:00 14,2 9,2 16,8 12 7 NNE 1011,6
09.07.2020 19:00:00 14,0 10,5 16,9 14 8 NNE 1011,4
09.07.2020 18:00:00 13,7 9,5 16,9 16 8 NNE 1011,5
09.07.2020 17:00:00 13,7 10,4 16,9 16 9 NE 1011,8
09.07.2020 16:00:00 13,7 8,7 16,9 14 7 ENE 1012,2
09.07.2020 15:00:00 13,4 9,9 16,9 12 6 E 1012,6
09.07.2020 14:00:00 13,5 10,5 16,9 12 6 SE 1013,0
09.07.2020 13:00:00 13,2 10,2 16,8 14 7 SSE 1013,6
09.07.2020 12:00:00 14,0 10,2 16,9 18 10 SSE 1013,7
09.07.2020 11:00:00 14,4 9,2 16,9 16 8 SE 1013,9
09.07.2020 10:00:00 14,0 10,2 16,9 13 7 ESE 1014,3
09.07.2020 09:00:00 14,0 10,0 16,8 9 5 ENE 1014,6
09.07.2020 08:00:00 14,0 9,7 16,7 3 2 NE 1014,8
09.07.2020 07:00:00 13,7 10,2 16,6 4 2 N 1014,9
09.07.2020 06:00:00 13,5 9,5 16,4 5 3 NNW 1014,9
09.07.2020 05:00:00 13,2 9,9 16,2 13 7 NW 1015,0
09.07.2020 04:00:00 13,5 9,9 16,1 16 9 WNW 1015,1
09.07.2020 03:00:00 13,5 9,4 16,1 20 11 WNW 1015,2
09.07.2020 02:00:00 13,7 9,2 16,1 26 14 WNW 1015,4
09.07.2020 01:00:00 14,0 9,2 16,3 31 17 WNW 1015,3
09.07.2020 00:00:00 14,5 9,7 16,5 29 16 WNW 1015,4
08.07.2020 23:00:00 14,7 9,5 16,5 34 18 W 1015,0
08.07.2020 22:00:00 15,0 9,2 16,5 32 18 WNW 1014,9
08.07.2020 21:00:00 15,7 8,7 16,6 32 17 W 1014,5
08.07.2020 20:00:00 16,2 8,4 16,7 34 18 W 1014,2
08.07.2020 19:00:00 15,7 9,4 16,8 31 17 W 1014,2
08.07.2020 18:00:00 16,0 8,7 16,7 33 18 W 1014,2
08.07.2020 17:00:00 15,9 8,5 16,7 35 19 WNW 1014,1
08.07.2020 16:00:00 16,0 8,7 16,5 34 18 W 1014,1
08.07.2020 15:00:00 15,7 9,2 16,5 34 19 W 1014,0
08.07.2020 14:00:00 15,5 9,7 16,3 31 17 W 1013,8
08.07.2020 13:00:00 15,2 8,5 16,2 35 19 W 1013,6
08.07.2020 12:00:00 14,5 8,4 16,0 35 19 WNW 1013,5
08.07.2020 11:00:00 14,5 9,2 16,1 32 17 W 1013,2
08.07.2020 10:00:00 14,0 8,9 15,9 32 17 W 1012,8
08.07.2020 09:00:00 13,0 9,2 15,8 32 17 WNW 1012,7
08.07.2020 08:00:00 13,9 8,7 15,6 36 19 W 1012,4
08.07.2020 07:00:00 13,7 9,0 15,6 35 19 W 1012,1
08.07.2020 06:00:00 13,7 9,9 15,6 37 20 W 1012,4
08.07.2020 05:00:00 13,5 9,2 15,6 38 21 W 1012,3
08.07.2020 04:00:00 13,5 9,5 15,6 38 20 W 1012,4
08.07.2020 03:00:00 13,5 9,2 15,6 40 22 W 1012,7
08.07.2020 02:00:00 13,7 9,4 15,6 36 20 W 1013,1
08.07.2020 01:00:00 14,0 9,7 15,2 40 22 W 1013,2
08.07.2020 00:00:00 12,4 10,4 15,4 27 15 W 1013,3
07.07.2020 23:00:00 14,0 9,7 15,3 37 20 W 1013,1
07.07.2020 22:00:00 12,5 10,5 15,4 34 18 W 1013,4
07.07.2020 21:00:00 14,5 10,4 15,0 40 21 W 1013,2
07.07.2020 20:00:00 14,4 10,0 15,0 42 23 W 1013,0
07.07.2020 19:00:00 14,9 11,2 14,9 41 22 WSW 1013,2
07.07.2020 18:00:00 14,9 10,5 14,9 41 22 WSW 1013,6
07.07.2020 17:00:00 14,5 10,7 15,5 51 28 W 1014,5
07.07.2020 16:00:00 14,4 11,7 15,4 48 26 W 1014,5
07.07.2020 15:00:00 17,0 9,7 15,9 41 22 WSW 1014,6
07.07.2020 14:00:00 17,5 8,0 16,1 40 21 WSW 1014,8
07.07.2020 13:00:00 17,0 9,5 16,4 34 18 WSW 1015,2
07.07.2020 12:00:00 15,7 9,5 15,7 37 20 WSW 1015,7
07.07.2020 11:00:00 15,2 9,2 15,6 34 19 W 1016,3
07.07.2020 10:00:00 14,7 9,0 15,3 36 20 W 1016,5
07.07.2020 09:00:00 14,4 9,5 15,1 41 22 W 1016,4
07.07.2020 08:00:00 13,9 9,2 15,0 43 23 W 1016,2
07.07.2020 07:00:00 13,7 9,0 15,4 37 20 W 1016,0
07.07.2020 06:00:00 13,9 9,4 15,5 41 22 WNW 1015,4
07.07.2020 05:00:00 13,9 8,2 15,6 45 25 W 1015,0
07.07.2020 04:00:00 14,0 8,5 15,6 48 26 WNW 1014,7
07.07.2020 03:00:00 13,7 8,4 15,4 57 31 WNW 1014,3
07.07.2020 02:00:00 14,0 9,0 16,9 52 28 WNW 1013,9
07.07.2020 01:00:00 14,2 9,5 17,0 58 31 W 1013,5
07.07.2020 00:00:00 14,5 9,2 17,0 59 32 W 1013,0
06.07.2020 23:00:00 14,9 9,5 17,4 58 31 W 1012,3
06.07.2020 22:00:00 15,0 9,5 17,5 58 31 W 1011,7
06.07.2020 21:00:00 15,5 10,2 17,5 60 32 W 1010,9
06.07.2020 20:00:00 16,0 9,4 17,4 59 32 W 1010,2
06.07.2020 19:00:00 15,9 11,5 17,3 54 29 W 1009,3
06.07.2020 18:00:00 15,9 11,2 17,0 53 28 W 1008,6
06.07.2020 17:00:00 16,5 11,0 16,7 57 31 W 1007,9
06.07.2020 16:00:00 16,7 10,7 16,8 52 28 W 1007,2
06.07.2020 15:00:00 16,2 10,0 16,7 60 32 W 1006,6
06.07.2020 14:00:00 14,9 9,9 16,7 56 30 W 1006,2
06.07.2020 13:00:00 16,0 11,0 16,7 53 28 W 1005,3
06.07.2020 12:00:00 15,2 11,0 16,7 55 30 W 1004,8
06.07.2020 11:00:00 15,5 11,0 16,7 51 28 W 1004,4
06.07.2020 10:00:00 14,9 11,2 16,4 56 30 WSW 1003,8

tt = Température de l'air
td = dewpoint
tw = water temperature
ff = Vitesse du vent
dd = Direction du vent
ppp = reduced air pressure

stations d'obs. à proximité